sensor_id;sensor_type;location;lat;lon;timestamp;pressure;altitude;pressure_sealevel;temperature;humidity
21276;BME280;36472;52.170;20.884;2024-01-27T00:01:19;100237.78;;;5.09;100.00
21276;BME280;36472;52.170;20.884;2024-01-27T00:03:48;100241.16;;;5.11;100.00
21276;BME280;36472;52.170;20.884;2024-01-27T00:06:19;100249.97;;;5.08;100.00
21276;BME280;36472;52.170;20.884;2024-01-27T00:08:48;100260.59;;;5.03;100.00
21276;BME280;36472;52.170;20.884;2024-01-27T00:11:17;100269.16;;;4.86;100.00
21276;BME280;36472;52.170;20.884;2024-01-27T00:13:46;100276.66;;;4.94;100.00
21276;BME280;36472;52.170;20.884;2024-01-27T00:16:15;100263.75;;;4.91;100.00
21276;BME280;36472;52.170;20.884;2024-01-27T00:18:45;100282.03;;;4.90;100.00
21276;BME280;36472;52.170;20.884;2024-01-27T00:21:15;100277.22;;;5.01;100.00
21276;BME280;36472;52.170;20.884;2024-01-27T00:23:45;100280.84;;;4.97;100.00
21276;BME280;36472;52.170;20.884;2024-01-27T00:26:14;100294.75;;;4.97;100.00
21276;BME280;36472;52.170;20.884;2024-01-27T00:28:43;100292.53;;;4.88;100.00
21276;BME280;36472;52.170;20.884;2024-01-27T00:31:12;100301.38;;;5.04;100.00
21276;BME280;36472;52.170;20.884;2024-01-27T00:33:41;100314.03;;;5.12;100.00
21276;BME280;36472;52.170;20.884;2024-01-27T00:36:10;100322.53;;;4.97;100.00
21276;BME280;36472;52.170;20.884;2024-01-27T00:38:39;100330.28;;;4.98;100.00
21276;BME280;36472;52.170;20.884;2024-01-27T00:41:16;100332.88;;;4.98;100.00
21276;BME280;36472;52.170;20.884;2024-01-27T00:43:46;100335.91;;;4.89;100.00
21276;BME280;36472;52.170;20.884;2024-01-27T00:46:15;100331.53;;;4.90;100.00
21276;BME280;36472;52.170;20.884;2024-01-27T00:48:44;100337.50;;;4.92;100.00
21276;BME280;36472;52.170;20.884;2024-01-27T00:51:13;100349.09;;;5.05;100.00
21276;BME280;36472;52.170;20.884;2024-01-27T00:53:42;100355.78;;;4.90;100.00
21276;BME280;36472;52.170;20.884;2024-01-27T00:56:13;100353.53;;;4.82;100.00
21276;BME280;36472;52.170;20.884;2024-01-27T00:58:42;100353.06;;;4.93;100.00
21276;BME280;36472;52.170;20.884;2024-01-27T01:01:11;100354.91;;;4.91;100.00
21276;BME280;36472;52.170;20.884;2024-01-27T01:03:40;100354.91;;;4.91;99.92
21276;BME280;36472;52.170;20.884;2024-01-27T01:06:09;100373.66;;;4.99;99.55
21276;BME280;36472;52.170;20.884;2024-01-27T01:08:38;100371.13;;;4.98;98.67
21276;BME280;36472;52.170;20.884;2024-01-27T01:11:07;100374.97;;;5.10;97.84
21276;BME280;36472;52.170;20.884;2024-01-27T01:13:38;100376.50;;;4.93;98.68
21276;BME280;36472;52.170;20.884;2024-01-27T01:16:07;100386.50;;;5.04;98.97
21276;BME280;36472;52.170;20.884;2024-01-27T01:18:36;100378.72;;;5.23;98.23
21276;BME280;36472;52.170;20.884;2024-01-27T01:21:06;100375.19;;;4.83;97.34
21276;BME280;36472;52.170;20.884;2024-01-27T01:23:35;100391.94;;;4.77;97.73
21276;BME280;36472;52.170;20.884;2024-01-27T01:26:04;100384.78;;;4.82;97.00
21276;BME280;36472;52.170;20.884;2024-01-27T01:28:33;100392.13;;;4.93;96.47
21276;BME280;36472;52.170;20.884;2024-01-27T01:31:06;100395.78;;;4.89;96.88
21276;BME280;36472;52.170;20.884;2024-01-27T01:33:36;100395.72;;;4.91;96.98
21276;BME280;36472;52.170;20.884;2024-01-27T01:36:05;100388.28;;;4.81;97.88
21276;BME280;36472;52.170;20.884;2024-01-27T01:38:34;100400.72;;;4.95;97.95
21276;BME280;36472;52.170;20.884;2024-01-27T01:41:04;100402.69;;;4.90;97.64
21276;BME280;36472;52.170;20.884;2024-01-27T01:43:33;100408.47;;;4.97;97.09
21276;BME280;36472;52.170;20.884;2024-01-27T01:46:04;100402.22;;;4.80;97.56
21276;BME280;36472;52.170;20.884;2024-01-27T01:48:33;100405.63;;;4.82;97.42
21276;BME280;36472;52.170;20.884;2024-01-27T01:51:03;100413.47;;;4.81;96.91
21276;BME280;36472;52.170;20.884;2024-01-27T01:53:33;100414.56;;;4.97;96.34
21276;BME280;36472;52.170;20.884;2024-01-27T01:56:04;100414.56;;;4.97;96.07
21276;BME280;36472;52.170;20.884;2024-01-27T01:58:33;100415.63;;;4.92;96.01
21276;BME280;36472;52.170;20.884;2024-01-27T02:01:04;100413.56;;;5.00;95.95
21276;BME280;36472;52.170;20.884;2024-01-27T02:03:33;100415.16;;;5.04;95.32
21276;BME280;36472;52.170;20.884;2024-01-27T02:06:03;100413.69;;;4.97;95.36
21276;BME280;36472;52.170;20.884;2024-01-27T02:08:31;100421.31;;;5.01;95.31
21276;BME280;36472;52.170;20.884;2024-01-27T02:11:01;100425.47;;;5.05;94.97
21276;BME280;36472;52.170;20.884;2024-01-27T02:13:30;100417.75;;;5.04;95.06
21276;BME280;36472;52.170;20.884;2024-01-27T02:15:59;100416.06;;;5.23;94.10
21276;BME280;36472;52.170;20.884;2024-01-27T02:18:30;100430.13;;;5.19;94.20
21276;BME280;36472;52.170;20.884;2024-01-27T02:20:59;100419.59;;;5.00;94.50
21276;BME280;36472;52.170;20.884;2024-01-27T02:23:28;100427.25;;;5.05;94.23
21276;BME280;36472;52.170;20.884;2024-01-27T02:25:58;100424.06;;;5.19;93.67
21276;BME280;36472;52.170;20.884;2024-01-27T02:28:27;100428.66;;;5.33;92.92
21276;BME280;36472;52.170;20.884;2024-01-27T02:30:59;100440.28;;;5.25;92.72
21276;BME280;36472;52.170;20.884;2024-01-27T02:33:29;100429.13;;;5.22;93.26
21276;BME280;36472;52.170;20.884;2024-01-27T02:35:58;100430.13;;;5.19;93.51
21276;BME280;36472;52.170;20.884;2024-01-27T02:38:27;100438.13;;;4.94;93.41
21276;BME280;36472;52.170;20.884;2024-01-27T02:40:57;100438.13;;;5.15;92.89
21276;BME280;36472;52.170;20.884;2024-01-27T02:43:26;100435.66;;;5.12;92.83
21276;BME280;36472;52.170;20.884;2024-01-27T02:45:55;100433.75;;;4.95;93.07
21276;BME280;36472;52.170;20.884;2024-01-27T02:48:24;100435.38;;;4.77;94.43
21276;BME280;36472;52.170;20.884;2024-01-27T02:50:54;100448.25;;;5.00;93.80
21276;BME280;36472;52.170;20.884;2024-01-27T02:53:23;100450.16;;;4.97;92.79
21276;BME280;36472;52.170;20.884;2024-01-27T02:55:52;100448.72;;;4.90;93.66
21276;BME280;36472;52.170;20.884;2024-01-27T02:58:22;100459.13;;;4.90;93.81
21276;BME280;36472;52.170;20.884;2024-01-27T03:00:51;100465.94;;;4.94;93.60
21276;BME280;36472;52.170;20.884;2024-01-27T03:03:20;100462.03;;;5.04;92.87
21276;BME280;36472;52.170;20.884;2024-01-27T03:05:50;100465.13;;;4.92;92.39
21276;BME280;36472;52.170;20.884;2024-01-27T03:08:19;100458.28;;;4.89;92.64
21276;BME280;36472;52.170;20.884;2024-01-27T03:10:48;100465.31;;;5.09;92.03
21276;BME280;36472;52.170;20.884;2024-01-27T03:13:17;100463.84;;;5.02;92.18
21276;BME280;36472;52.170;20.884;2024-01-27T03:15:48;100458.63;;;5.02;90.71
21276;BME280;36472;52.170;20.884;2024-01-27T03:18:17;100474.19;;;5.03;90.78
21276;BME280;36472;52.170;20.884;2024-01-27T03:20:47;100473.19;;;5.08;90.54
21276;BME280;36472;52.170;20.884;2024-01-27T03:23:16;100474.72;;;5.12;89.67
21276;BME280;36472;52.170;20.884;2024-01-27T03:25:45;100474.28;;;5.22;89.64
21276;BME280;36472;52.170;20.884;2024-01-27T03:28:14;100464.44;;;5.09;88.92
21276;BME280;36472;52.170;20.884;2024-01-27T03:30:44;100473.63;;;5.17;89.22
21276;BME280;36472;52.170;20.884;2024-01-27T03:33:14;100481.88;;;5.06;89.08
21276;BME280;36472;52.170;20.884;2024-01-27T03:35:43;100480.19;;;5.05;89.09
21276;BME280;36472;52.170;20.884;2024-01-27T03:38:12;100480.69;;;4.93;89.86
21276;BME280;36472;52.170;20.884;2024-01-27T03:40:41;100486.34;;;5.25;88.13
21276;BME280;36472;52.170;20.884;2024-01-27T03:43:10;100486.13;;;5.09;87.82
21276;BME280;36472;52.170;20.884;2024-01-27T03:45:40;100499.53;;;5.00;88.86
21276;BME280;36472;52.170;20.884;2024-01-27T03:48:08;100491.09;;;4.93;88.03
21276;BME280;36472;52.170;20.884;2024-01-27T03:50:39;100489.59;;;5.10;88.62
21276;BME280;36472;52.170;20.884;2024-01-27T03:53:08;100485.28;;;4.86;88.21
21276;BME280;36472;52.170;20.884;2024-01-27T03:55:37;100482.94;;;5.02;87.94
21276;BME280;36472;52.170;20.884;2024-01-27T03:58:06;100485.84;;;4.95;87.96
21276;BME280;36472;52.170;20.884;2024-01-27T04:00:35;100495.91;;;5.04;87.86
21276;BME280;36472;52.170;20.884;2024-01-27T04:03:04;100507.31;;;5.22;87.77
21276;BME280;36472;52.170;20.884;2024-01-27T04:05:34;100501.63;;;5.12;88.41
21276;BME280;36472;52.170;20.884;2024-01-27T04:08:05;100508.78;;;5.07;89.34
21276;BME280;36472;52.170;20.884;2024-01-27T04:10:36;100498.00;;;5.16;88.68
21276;BME280;36472;52.170;20.884;2024-01-27T04:13:05;100501.63;;;5.12;89.00
21276;BME280;36472;52.170;20.884;2024-01-27T04:15:35;100496.16;;;5.18;88.83
21276;BME280;36472;52.170;20.884;2024-01-27T04:18:07;100499.63;;;5.19;88.43
21276;BME280;36472;52.170;20.884;2024-01-27T04:20:37;100494.41;;;5.19;87.94
21276;BME280;36472;52.170;20.884;2024-01-27T04:23:08;100492.44;;;5.03;88.48
21276;BME280;36472;52.170;20.884;2024-01-27T04:25:37;100499.81;;;5.14;88.18
21276;BME280;36472;52.170;20.884;2024-01-27T04:28:06;100496.84;;;5.01;87.92
21276;BME280;36472;52.170;20.884;2024-01-27T04:30:37;100497.47;;;5.08;88.39
21276;BME280;36472;52.170;20.884;2024-01-27T04:33:06;100498.56;;;5.02;87.57
21276;BME280;36472;52.170;20.884;2024-01-27T04:35:36;100501.63;;;5.12;87.28
21276;BME280;36472;52.170;20.884;2024-01-27T04:38:05;100515.75;;;4.84;88.25
21276;BME280;36472;52.170;20.884;2024-01-27T04:40:36;100514.75;;;4.89;88.13
21276;BME280;36472;52.170;20.884;2024-01-27T04:43:05;100517.53;;;4.84;88.35
21276;BME280;36472;52.170;20.884;2024-01-27T04:45:34;100521.47;;;4.94;88.12
21276;BME280;36472;52.170;20.884;2024-01-27T04:48:04;100533.75;;;4.91;87.93
21276;BME280;36472;52.170;20.884;2024-01-27T04:50:33;100524.13;;;4.93;88.21
21276;BME280;36472;52.170;20.884;2024-01-27T04:53:02;100523.13;;;4.95;88.15
21276;BME280;36472;52.170;20.884;2024-01-27T04:55:32;100527.94;;;5.06;87.63
21276;BME280;36472;52.170;20.884;2024-01-27T04:58:02;100522.00;;;5.02;87.30
21276;BME280;36472;52.170;20.884;2024-01-27T05:00:31;100529.56;;;4.86;88.33
21276;BME280;36472;52.170;20.884;2024-01-27T05:03:00;100532.97;;;4.89;88.70
21276;BME280;36472;52.170;20.884;2024-01-27T05:05:32;100529.94;;;4.77;89.27
21276;BME280;36472;52.170;20.884;2024-01-27T05:08:04;100529.44;;;4.90;88.65
21276;BME280;36472;52.170;20.884;2024-01-27T05:10:33;100536.09;;;4.97;88.44
21276;BME280;36472;52.170;20.884;2024-01-27T05:13:03;100535.25;;;4.96;87.96
21276;BME280;36472;52.170;20.884;2024-01-27T05:15:33;100529.69;;;5.05;87.30
21276;BME280;36472;52.170;20.884;2024-01-27T05:18:02;100527.22;;;4.80;88.34
21276;BME280;36472;52.170;20.884;2024-01-27T05:20:32;100531.22;;;5.11;87.81
21276;BME280;36472;52.170;20.884;2024-01-27T05:23:01;100520.91;;;5.08;87.13
21276;BME280;36472;52.170;20.884;2024-01-27T05:25:30;100542.91;;;5.01;87.33
21276;BME280;36472;52.170;20.884;2024-01-27T05:27:59;100537.97;;;5.15;87.76
21276;BME280;36472;52.170;20.884;2024-01-27T05:30:29;100531.00;;;5.16;87.99
21276;BME280;36472;52.170;20.884;2024-01-27T05:32:58;100539.81;;;5.13;88.54
21276;BME280;36472;52.170;20.884;2024-01-27T05:35:28;100533.09;;;4.85;89.75
21276;BME280;36472;52.170;20.884;2024-01-27T05:37:57;100520.53;;;4.95;90.36
21276;BME280;36472;52.170;20.884;2024-01-27T05:40:26;100516.06;;;4.99;90.48
21276;BME280;36472;52.170;20.884;2024-01-27T05:42:55;100515.56;;;5.11;89.83
21276;BME280;36472;52.170;20.884;2024-01-27T05:45:25;100518.41;;;5.05;89.17
21276;BME280;36472;52.170;20.884;2024-01-27T05:47:55;100517.97;;;5.16;88.08
21276;BME280;36472;52.170;20.884;2024-01-27T05:50:26;100521.97;;;5.24;87.59
21276;BME280;36472;52.170;20.884;2024-01-27T05:52:55;100517.53;;;5.06;87.10
21276;BME280;36472;52.170;20.884;2024-01-27T05:55:24;100518.25;;;5.10;86.79
21276;BME280;36472;52.170;20.884;2024-01-27T05:57:53;100515.06;;;5.23;85.96
21276;BME280;36472;52.170;20.884;2024-01-27T06:00:23;100515.38;;;5.16;85.81
21276;BME280;36472;52.170;20.884;2024-01-27T06:02:52;100514.44;;;4.96;86.14
21276;BME280;36472;52.170;20.884;2024-01-27T06:05:22;100517.47;;;4.85;85.34
21276;BME280;36472;52.170;20.884;2024-01-27T06:07:51;100510.13;;;4.95;86.13
21276;BME280;36472;52.170;20.884;2024-01-27T06:10:20;100516.91;;;4.77;85.67
21276;BME280;36472;52.170;20.884;2024-01-27T06:12:51;100520.47;;;4.97;85.66
21276;BME280;36472;52.170;20.884;2024-01-27T06:15:20;100527.69;;;4.90;85.47
21276;BME280;36472;52.170;20.884;2024-01-27T06:17:50;100525.81;;;4.72;86.77
21276;BME280;36472;52.170;20.884;2024-01-27T06:20:19;100525.41;;;4.82;86.55
21276;BME280;36472;52.170;20.884;2024-01-27T06:22:50;100527.81;;;4.65;88.35
21276;BME280;36472;52.170;20.884;2024-01-27T06:25:23;100546.13;;;4.85;88.25
21276;BME280;36472;52.170;20.884;2024-01-27T06:27:55;100550.44;;;4.85;88.73
21276;BME280;36472;52.170;20.884;2024-01-27T06:30:25;100549.84;;;4.56;90.23
21276;BME280;36472;52.170;20.884;2024-01-27T06:32:54;100550.94;;;4.73;89.93
21276;BME280;36472;52.170;20.884;2024-01-27T06:35:23;100543.88;;;4.53;90.85
21276;BME280;36472;52.170;20.884;2024-01-27T06:37:53;100543.88;;;4.30;92.91
21276;BME280;36472;52.170;20.884;2024-01-27T06:40:23;100550.22;;;4.45;92.47
21276;BME280;36472;52.170;20.884;2024-01-27T06:42:51;100557.41;;;4.39;93.09
21276;BME280;36472;52.170;20.884;2024-01-27T06:45:21;100552.81;;;4.45;93.91
21276;BME280;36472;52.170;20.884;2024-01-27T06:47:50;100558.50;;;4.33;94.03
21276;BME280;36472;52.170;20.884;2024-01-27T06:50:19;100554.25;;;4.07;94.78
21276;BME280;36472;52.170;20.884;2024-01-27T06:52:48;100560.38;;;4.04;95.36
21276;BME280;36472;52.170;20.884;2024-01-27T06:55:19;100563.06;;;4.26;95.13
21276;BME280;36472;52.170;20.884;2024-01-27T06:57:47;100558.44;;;4.11;95.62
21276;BME280;36472;52.170;20.884;2024-01-27T07:00:17;100562.78;;;4.10;95.86
21276;BME280;36472;52.170;20.884;2024-01-27T07:02:47;100556.56;;;4.15;95.74
21276;BME280;36472;52.170;20.884;2024-01-27T07:05:16;100557.75;;;4.29;95.05
21276;BME280;36472;52.170;20.884;2024-01-27T07:07:45;100570.50;;;4.14;96.18
21276;BME280;36472;52.170;20.884;2024-01-27T07:10:15;100570.00;;;4.02;96.57
21276;BME280;36472;52.170;20.884;2024-01-27T07:12:45;100574.19;;;4.06;96.91
21276;BME280;36472;52.170;20.884;2024-01-27T07:15:14;100563.53;;;4.14;97.05
21276;BME280;36472;52.170;20.884;2024-01-27T07:17:44;100577.56;;;4.10;96.57
21276;BME280;36472;52.170;20.884;2024-01-27T07:20:13;100570.09;;;3.99;97.68
21276;BME280;36472;52.170;20.884;2024-01-27T07:22:42;100587.09;;;4.09;98.01
21276;BME280;36472;52.170;20.884;2024-01-27T07:25:12;100578.25;;;4.15;97.79
21276;BME280;36472;52.170;20.884;2024-01-27T07:27:41;100590.28;;;3.92;98.22
21276;BME280;36472;52.170;20.884;2024-01-27T07:30:12;100592.19;;;4.12;99.01
21276;BME280;36472;52.170;20.884;2024-01-27T07:32:43;100586.88;;;3.90;99.46
21276;BME280;36472;52.170;20.884;2024-01-27T07:35:12;100585.31;;;3.86;99.80
21276;BME280;36472;52.170;20.884;2024-01-27T07:37:42;100589.63;;;3.86;99.98
21276;BME280;36472;52.170;20.884;2024-01-27T07:40:12;100584.84;;;3.73;100.00
21276;BME280;36472;52.170;20.884;2024-01-27T07:42:41;100595.44;;;3.94;100.00
21276;BME280;36472;52.170;20.884;2024-01-27T07:45:11;100596.28;;;3.95;100.00
21276;BME280;36472;52.170;20.884;2024-01-27T07:47:40;100593.34;;;3.79;100.00
21276;BME280;36472;52.170;20.884;2024-01-27T07:50:10;100599.00;;;3.91;99.83
21276;BME280;36472;52.170;20.884;2024-01-27T07:52:39;100608.13;;;3.78;100.00
21276;BME280;36472;52.170;20.884;2024-01-27T07:55:09;100600.78;;;3.89;100.00
21276;BME280;36472;52.170;20.884;2024-01-27T07:57:38;100607.00;;;3.85;100.00
21276;BME280;36472;52.170;20.884;2024-01-27T08:00:09;100598.06;;;3.92;100.00
21276;BME280;36472;52.170;20.884;2024-01-27T08:02:39;100613.00;;;3.87;100.00
21276;BME280;36472;52.170;20.884;2024-01-27T08:05:09;100599.16;;;3.60;100.00
21276;BME280;36472;52.170;20.884;2024-01-27T08:07:38;100596.69;;;3.82;100.00
21276;BME280;36472;52.170;20.884;2024-01-27T08:10:08;100606.75;;;3.93;100.00
21276;BME280;36472;52.170;20.884;2024-01-27T08:12:38;100612.63;;;3.73;100.00
21276;BME280;36472;52.170;20.884;2024-01-27T08:15:09;100613.00;;;3.87;100.00
21276;BME280;36472;52.170;20.884;2024-01-27T08:17:39;100610.66;;;3.80;100.00
21276;BME280;36472;52.170;20.884;2024-01-27T08:20:10;100619.56;;;3.72;100.00
21276;BME280;36472;52.170;20.884;2024-01-27T08:22:40;100614.94;;;3.81;100.00
21276;BME280;36472;52.170;20.884;2024-01-27T08:25:09;100610.06;;;3.71;100.00
21276;BME280;36472;52.170;20.884;2024-01-27T08:27:38;100614.09;;;3.80;100.00
21276;BME280;36472;52.170;20.884;2024-01-27T08:30:08;100608.63;;;3.63;100.00
21276;BME280;36472;52.170;20.884;2024-01-27T08:32:39;100607.66;;;3.65;100.00
21276;BME280;36472;52.170;20.884;2024-01-27T08:35:08;100617.97;;;3.42;100.00
21276;BME280;36472;52.170;20.884;2024-01-27T08:37:38;100624.31;;;3.60;100.00
21276;BME280;36472;52.170;20.884;2024-01-27T08:40:09;100625.00;;;3.65;100.00
21276;BME280;36472;52.170;20.884;2024-01-27T08:42:39;100626.88;;;3.61;100.00
21276;BME280;36472;52.170;20.884;2024-01-27T08:45:09;100631.19;;;3.87;100.00
21276;BME280;36472;52.170;20.884;2024-01-27T08:47:39;100623.00;;;4.00;100.00
21276;BME280;36472;52.170;20.884;2024-01-27T08:50:10;100621.66;;;3.88;100.00
21276;BME280;36472;52.170;20.884;2024-01-27T08:52:39;100632.84;;;3.90;100.00
21276;BME280;36472;52.170;20.884;2024-01-27T08:55:08;100637.13;;;3.66;100.00
21276;BME280;36472;52.170;20.884;2024-01-27T08:57:37;100631.97;;;3.64;100.00
21276;BME280;36472;52.170;20.884;2024-01-27T09:00:08;100632.50;;;3.74;100.00
21276;BME280;36472;52.170;20.884;2024-01-27T09:02:39;100640.97;;;3.54;100.00
21276;BME280;36472;52.170;20.884;2024-01-27T09:05:08;100653.94;;;3.81;100.00
21276;BME280;36472;52.170;20.884;2024-01-27T09:07:37;100653.78;;;3.59;100.00
21276;BME280;36472;52.170;20.884;2024-01-27T09:10:07;100660.16;;;3.77;100.00
21276;BME280;36472;52.170;20.884;2024-01-27T09:12:37;100664.97;;;3.62;100.00
21276;BME280;36472;52.170;20.884;2024-01-27T09:15:07;100668.69;;;3.80;100.00
21276;BME280;36472;52.170;20.884;2024-01-27T09:17:36;100672.03;;;3.84;100.00
21276;BME280;36472;52.170;20.884;2024-01-27T09:20:08;100683.16;;;3.89;100.00
21276;BME280;36472;52.170;20.884;2024-01-27T09:22:37;100676.84;;;3.96;100.00
21276;BME280;36472;52.170;20.884;2024-01-27T09:25:08;100684.75;;;3.93;100.00
21276;BME280;36472;52.170;20.884;2024-01-27T09:27:37;100681.00;;;4.02;100.00
21276;BME280;36472;52.170;20.884;2024-01-27T09:30:07;100688.34;;;3.89;100.00
21276;BME280;36472;52.170;20.884;2024-01-27T09:32:36;100688.56;;;4.08;100.00
21276;BME280;36472;52.170;20.884;2024-01-27T09:35:07;100690.06;;;3.90;100.00
21276;BME280;36472;52.170;20.884;2024-01-27T09:37:36;100694.34;;;3.91;100.00
21276;BME280;36472;52.170;20.884;2024-01-27T09:40:07;100691.53;;;3.70;100.00
21276;BME280;36472;52.170;20.884;2024-01-27T09:42:38;100689.09;;;3.92;100.00
21276;BME280;36472;52.170;20.884;2024-01-27T09:45:09;100706.34;;;3.95;100.00
21276;BME280;36472;52.170;20.884;2024-01-27T09:47:38;100701.91;;;3.99;100.00
21276;BME280;36472;52.170;20.884;2024-01-27T09:50:11;100709.75;;;3.97;100.00
21276;BME280;36472;52.170;20.884;2024-01-27T09:52:40;100707.75;;;4.05;100.00
21276;BME280;36472;52.170;20.884;2024-01-27T09:55:10;100717.06;;;4.12;100.00
21276;BME280;36472;52.170;20.884;2024-01-27T09:57:40;100717.75;;;4.18;100.00
21276;BME280;36472;52.170;20.884;2024-01-27T10:00:12;100714.81;;;4.27;100.00
21276;BME280;36472;52.170;20.884;2024-01-27T10:02:42;100713.34;;;4.20;100.00
21276;BME280;36472;52.170;20.884;2024-01-27T10:05:13;100715.47;;;4.08;100.00
21276;BME280;36472;52.170;20.884;2024-01-27T10:07:43;100725.44;;;4.21;100.00
21276;BME280;36472;52.170;20.884;2024-01-27T10:10:12;100721.59;;;4.06;100.00
21276;BME280;36472;52.170;20.884;2024-01-27T10:12:41;100725.03;;;4.06;100.00
21276;BME280;36472;52.170;20.884;2024-01-27T10:15:20;100733.81;;;4.04;100.00
21276;BME280;36472;52.170;20.884;2024-01-27T10:17:50;100727.22;;;4.20;100.00
21276;BME280;36472;52.170;20.884;2024-01-27T10:20:21;100738.31;;;4.25;100.00
21276;BME280;36472;52.170;20.884;2024-01-27T10:22:50;100748.34;;;4.36;100.00
21276;BME280;36472;52.170;20.884;2024-01-27T10:25:19;100754.09;;;4.46;100.00
21276;BME280;36472;52.170;20.884;2024-01-27T10:27:48;100752.28;;;4.48;100.00
21276;BME280;36472;52.170;20.884;2024-01-27T10:30:17;100755.38;;;4.34;100.00
21276;BME280;36472;52.170;20.884;2024-01-27T10:32:55;100760.66;;;4.31;100.00
21276;BME280;36472;52.170;20.884;2024-01-27T10:35:27;100767.91;;;4.21;100.00
21276;BME280;36472;52.170;20.884;2024-01-27T10:37:56;100759.97;;;4.26;100.00
21276;BME280;36472;52.170;20.884;2024-01-27T10:40:27;100762.28;;;4.08;100.00
21276;BME280;36472;52.170;20.884;2024-01-27T10:43:02;100760.97;;;4.22;100.00
21276;BME280;36472;52.170;20.884;2024-01-27T10:45:36;100770.28;;;4.29;100.00
21276;BME280;36472;52.170;20.884;2024-01-27T10:48:07;100774.84;;;4.47;100.00
21276;BME280;36472;52.170;20.884;2024-01-27T10:50:40;100775.16;;;4.38;100.00
21276;BME280;36472;52.170;20.884;2024-01-27T10:53:23;100788.22;;;4.37;100.00
21276;BME280;36472;52.170;20.884;2024-01-27T10:55:58;100788.44;;;4.30;100.00
21276;BME280;36472;52.170;20.884;2024-01-27T10:58:27;100798.53;;;4.40;100.00
21276;BME280;36472;52.170;20.884;2024-01-27T11:00:59;100789.38;;;4.28;100.00
21276;BME280;36472;52.170;20.884;2024-01-27T11:03:29;100793.97;;;4.20;100.00
21276;BME280;36472;52.170;20.884;2024-01-27T11:06:02;100804.59;;;4.40;100.00
21276;BME280;36472;52.170;20.884;2024-01-27T11:08:34;100808.94;;;4.40;100.00
21276;BME280;36472;52.170;20.884;2024-01-27T11:11:05;100803.28;;;4.27;100.00
21276;BME280;36472;52.170;20.884;2024-01-27T11:13:35;100811.03;;;4.28;100.00
21276;BME280;36472;52.170;20.884;2024-01-27T11:16:07;100808.13;;;4.11;100.00
21276;BME280;36472;52.170;20.884;2024-01-27T11:18:44;100820.00;;;4.46;100.00
21276;BME280;36472;52.170;20.884;2024-01-27T11:21:16;100833.97;;;4.17;100.00
21276;BME280;36472;52.170;20.884;2024-01-27T11:23:45;100839.34;;;4.11;100.00
21276;BME280;36472;52.170;20.884;2024-01-27T11:26:20;100834.06;;;4.14;100.00
21276;BME280;36472;52.170;20.884;2024-01-27T11:28:51;100840.91;;;3.88;100.00
21276;BME280;36472;52.170;20.884;2024-01-27T11:31:20;100857.53;;;4.12;100.00
21276;BME280;36472;52.170;20.884;2024-01-27T11:33:51;100858.44;;;4.38;100.00
21276;BME280;36472;52.170;20.884;2024-01-27T11:36:24;100848.34;;;4.29;100.00
21276;BME280;36472;52.170;20.884;2024-01-27T11:38:55;100863.50;;;4.43;100.00
21276;BME280;36472;52.170;20.884;2024-01-27T11:41:28;100871.28;;;4.44;100.00
21276;BME280;36472;52.170;20.884;2024-01-27T11:43:58;100884.38;;;4.41;99.43
21276;BME280;36472;52.170;20.884;2024-01-27T11:46:29;100879.00;;;4.19;100.00
21276;BME280;36472;52.170;20.884;2024-01-27T11:48:58;100893.06;;;4.14;99.88
21276;BME280;36472;52.170;20.884;2024-01-27T11:51:29;100903.69;;;4.06;100.00
21276;BME280;36472;52.170;20.884;2024-01-27T11:53:58;100901.56;;;4.19;100.00
21276;BME280;36472;52.170;20.884;2024-01-27T11:56:28;100912.31;;;4.06;100.00
21276;BME280;36472;52.170;20.884;2024-01-27T11:58:56;100913.91;;;4.12;100.00
21276;BME280;36472;52.170;20.884;2024-01-27T12:01:26;100923.44;;;4.11;99.98
21276;BME280;36472;52.170;20.884;2024-01-27T12:03:55;100924.63;;;4.01;99.78
21276;BME280;36472;52.170;20.884;2024-01-27T12:06:24;100925.44;;;4.03;99.83
21276;BME280;36472;52.170;20.884;2024-01-27T12:08:56;100931.19;;;3.85;100.00
21276;BME280;36472;52.170;20.884;2024-01-27T12:11:26;100934.72;;;4.12;99.75
21276;BME280;36472;52.170;20.884;2024-01-27T12:13:57;100945.50;;;4.28;99.49
21276;BME280;36472;52.170;20.884;2024-01-27T12:16:27;100943.78;;;4.27;98.74
21276;BME280;36472;52.170;20.884;2024-01-27T12:18:57;100954.50;;;4.18;98.74
21276;BME280;36472;52.170;20.884;2024-01-27T12:21:26;100957.66;;;3.98;99.85
21276;BME280;36472;52.170;20.884;2024-01-27T12:23:58;100956.91;;;3.94;100.00
21276;BME280;36472;52.170;20.884;2024-01-27T12:26:29;100966.78;;;4.12;99.86
21276;BME280;36472;52.170;20.884;2024-01-27T12:29:00;100965.44;;;3.99;99.72
21276;BME280;36472;52.170;20.884;2024-01-27T12:31:29;100975.38;;;4.15;99.72
21276;BME280;36472;52.170;20.884;2024-01-27T12:33:59;100980.53;;;4.16;99.15
21276;BME280;36472;52.170;20.884;2024-01-27T12:36:28;100993.13;;;4.02;99.38
21276;BME280;36472;52.170;20.884;2024-01-27T12:39:02;100989.63;;;4.01;99.15
21276;BME280;36472;52.170;20.884;2024-01-27T12:41:33;100995.53;;;4.08;99.40
21276;BME280;36472;52.170;20.884;2024-01-27T12:44:02;101001.03;;;4.27;97.78
21276;BME280;36472;52.170;20.884;2024-01-27T12:46:31;101005.44;;;4.25;97.89
21276;BME280;36472;52.170;20.884;2024-01-27T12:49:00;101016.13;;;4.45;97.59
21276;BME280;36472;52.170;20.884;2024-01-27T12:51:31;101015.41;;;4.40;97.21
21276;BME280;36472;52.170;20.884;2024-01-27T12:54:01;101028.03;;;4.53;96.72
21276;BME280;36472;52.170;20.884;2024-01-27T12:56:31;101030.13;;;4.41;96.42
21276;BME280;36472;52.170;20.884;2024-01-27T12:59:02;101029.50;;;4.33;96.45